sensor_id;sensor_type;location;lat;lon;timestamp;P1;durP1;ratioP1;P2;durP2;ratioP2
41311;SDS011;27061;41.648;24.568;2023-09-30T00:00:31;34.35;;;6.65;;
41311;SDS011;27061;41.648;24.568;2023-09-30T00:03:00;52.05;;;7.50;;
41311;SDS011;27061;41.648;24.568;2023-09-30T00:05:28;29.98;;;5.72;;
41311;SDS011;27061;41.648;24.568;2023-09-30T00:07:55;47.58;;;6.20;;
41311;SDS011;27061;41.648;24.568;2023-09-30T00:10:22;18.60;;;5.10;;
41311;SDS011;27061;41.648;24.568;2023-09-30T00:12:49;30.00;;;5.40;;
41311;SDS011;27061;41.648;24.568;2023-09-30T00:15:16;12.95;;;4.53;;
41311;SDS011;27061;41.648;24.568;2023-09-30T00:17:44;15.98;;;4.13;;
41311;SDS011;27061;41.648;24.568;2023-09-30T00:20:11;11.52;;;4.70;;
41311;SDS011;27061;41.648;24.568;2023-09-30T00:22:41;33.13;;;10.52;;
41311;SDS011;27061;41.648;24.568;2023-09-30T00:25:08;35.38;;;6.28;;
41311;SDS011;27061;41.648;24.568;2023-09-30T00:27:36;24.52;;;4.55;;
41311;SDS011;27061;41.648;24.568;2023-09-30T00:30:04;25.27;;;6.03;;
41311;SDS011;27061;41.648;24.568;2023-09-30T00:32:33;13.10;;;4.28;;
41311;SDS011;27061;41.648;24.568;2023-09-30T00:35:02;25.27;;;4.90;;
41311;SDS011;27061;41.648;24.568;2023-09-30T00:37:29;11.02;;;4.28;;
41311;SDS011;27061;41.648;24.568;2023-09-30T00:39:57;22.20;;;5.53;;
41311;SDS011;27061;41.648;24.568;2023-09-30T00:42:24;42.10;;;5.03;;
41311;SDS011;27061;41.648;24.568;2023-09-30T00:44:51;27.33;;;5.50;;
41311;SDS011;27061;41.648;24.568;2023-09-30T00:47:18;18.48;;;4.43;;
41311;SDS011;27061;41.648;24.568;2023-09-30T00:49:48;35.55;;;5.53;;
41311;SDS011;27061;41.648;24.568;2023-09-30T00:52:17;38.38;;;5.40;;
41311;SDS011;27061;41.648;24.568;2023-09-30T00:54:45;24.83;;;4.75;;
41311;SDS011;27061;41.648;24.568;2023-09-30T00:57:14;16.88;;;4.70;;
41311;SDS011;27061;41.648;24.568;2023-09-30T00:59:42;16.02;;;4.18;;
41311;SDS011;27061;41.648;24.568;2023-09-30T01:02:09;14.23;;;4.20;;
41311;SDS011;27061;41.648;24.568;2023-09-30T01:04:37;17.42;;;4.55;;
41311;SDS011;27061;41.648;24.568;2023-09-30T01:07:05;20.05;;;4.95;;
41311;SDS011;27061;41.648;24.568;2023-09-30T01:09:32;13.00;;;4.97;;
41311;SDS011;27061;41.648;24.568;2023-09-30T01:12:00;23.40;;;5.45;;
41311;SDS011;27061;41.648;24.568;2023-09-30T01:14:30;31.83;;;5.10;;
41311;SDS011;27061;41.648;24.568;2023-09-30T01:17:01;17.23;;;4.10;;
41311;SDS011;27061;41.648;24.568;2023-09-30T01:19:28;17.27;;;4.85;;
41311;SDS011;27061;41.648;24.568;2023-09-30T01:21:56;29.73;;;5.30;;
41311;SDS011;27061;41.648;24.568;2023-09-30T01:24:27;41.55;;;6.30;;
41311;SDS011;27061;41.648;24.568;2023-09-30T01:26:58;15.50;;;5.00;;
41311;SDS011;27061;41.648;24.568;2023-09-30T01:29:25;29.05;;;4.78;;
41311;SDS011;27061;41.648;24.568;2023-09-30T01:31:53;49.47;;;6.80;;
41311;SDS011;27061;41.648;24.568;2023-09-30T01:34:21;18.38;;;4.93;;
41311;SDS011;27061;41.648;24.568;2023-09-30T01:36:48;21.80;;;5.82;;
41311;SDS011;27061;41.648;24.568;2023-09-30T01:39:16;23.33;;;5.72;;
41311;SDS011;27061;41.648;24.568;2023-09-30T01:41:43;20.60;;;5.57;;
41311;SDS011;27061;41.648;24.568;2023-09-30T01:44:10;93.95;;;9.40;;
41311;SDS011;27061;41.648;24.568;2023-09-30T01:46:37;24.95;;;5.53;;
41311;SDS011;27061;41.648;24.568;2023-09-30T01:49:05;28.65;;;5.13;;
41311;SDS011;27061;41.648;24.568;2023-09-30T01:51:32;55.70;;;7.50;;
41311;SDS011;27061;41.648;24.568;2023-09-30T01:54:00;103.53;;;8.32;;
41311;SDS011;27061;41.648;24.568;2023-09-30T01:56:27;37.83;;;5.93;;
41311;SDS011;27061;41.648;24.568;2023-09-30T01:58:54;59.08;;;7.70;;
41311;SDS011;27061;41.648;24.568;2023-09-30T02:01:21;38.90;;;5.22;;
41311;SDS011;27061;41.648;24.568;2023-09-30T02:03:50;47.65;;;5.97;;
41311;SDS011;27061;41.648;24.568;2023-09-30T02:06:18;15.30;;;4.75;;
41311;SDS011;27061;41.648;24.568;2023-09-30T02:08:45;30.00;;;6.18;;
41311;SDS011;27061;41.648;24.568;2023-09-30T02:11:12;23.25;;;5.03;;
41311;SDS011;27061;41.648;24.568;2023-09-30T02:13:40;24.25;;;6.00;;
41311;SDS011;27061;41.648;24.568;2023-09-30T02:16:13;33.33;;;7.03;;
41311;SDS011;27061;41.648;24.568;2023-09-30T02:18:42;34.47;;;5.70;;
41311;SDS011;27061;41.648;24.568;2023-09-30T02:21:11;27.77;;;4.78;;
41311;SDS011;27061;41.648;24.568;2023-09-30T02:23:39;12.85;;;4.30;;
41311;SDS011;27061;41.648;24.568;2023-09-30T02:26:06;37.55;;;5.65;;
41311;SDS011;27061;41.648;24.568;2023-09-30T02:28:33;25.55;;;4.13;;
41311;SDS011;27061;41.648;24.568;2023-09-30T02:31:01;12.95;;;4.18;;
41311;SDS011;27061;41.648;24.568;2023-09-30T02:33:29;17.25;;;4.75;;
41311;SDS011;27061;41.648;24.568;2023-09-30T02:35:56;15.30;;;4.57;;
41311;SDS011;27061;41.648;24.568;2023-09-30T02:38:23;17.48;;;4.82;;
41311;SDS011;27061;41.648;24.568;2023-09-30T02:40:51;9.27;;;4.38;;
41311;SDS011;27061;41.648;24.568;2023-09-30T02:43:19;62.70;;;8.57;;
41311;SDS011;27061;41.648;24.568;2023-09-30T02:45:47;11.02;;;4.97;;
41311;SDS011;27061;41.648;24.568;2023-09-30T02:48:15;9.60;;;4.38;;
41311;SDS011;27061;41.648;24.568;2023-09-30T02:50:42;20.13;;;3.80;;
41311;SDS011;27061;41.648;24.568;2023-09-30T02:53:12;33.53;;;4.82;;
41311;SDS011;27061;41.648;24.568;2023-09-30T02:55:42;6.85;;;4.40;;
41311;SDS011;27061;41.648;24.568;2023-09-30T02:58:11;44.67;;;6.10;;
41311;SDS011;27061;41.648;24.568;2023-09-30T03:00:38;29.42;;;5.65;;
41311;SDS011;27061;41.648;24.568;2023-09-30T03:03:06;25.75;;;5.15;;
41311;SDS011;27061;41.648;24.568;2023-09-30T03:05:33;35.47;;;6.75;;
41311;SDS011;27061;41.648;24.568;2023-09-30T03:08:00;30.70;;;5.22;;
41311;SDS011;27061;41.648;24.568;2023-09-30T03:10:28;11.93;;;4.95;;
41311;SDS011;27061;41.648;24.568;2023-09-30T03:12:55;18.50;;;4.75;;
41311;SDS011;27061;41.648;24.568;2023-09-30T03:15:23;12.10;;;4.72;;
41311;SDS011;27061;41.648;24.568;2023-09-30T03:17:50;26.98;;;5.63;;
41311;SDS011;27061;41.648;24.568;2023-09-30T03:20:19;18.13;;;5.18;;
41311;SDS011;27061;41.648;24.568;2023-09-30T03:22:47;11.00;;;4.50;;
41311;SDS011;27061;41.648;24.568;2023-09-30T03:25:22;9.73;;;4.60;;
41311;SDS011;27061;41.648;24.568;2023-09-30T03:27:50;10.38;;;5.15;;
41311;SDS011;27061;41.648;24.568;2023-09-30T03:30:17;30.90;;;6.85;;
41311;SDS011;27061;41.648;24.568;2023-09-30T03:32:47;11.55;;;4.70;;
41311;SDS011;27061;41.648;24.568;2023-09-30T03:35:14;16.70;;;4.20;;
41311;SDS011;27061;41.648;24.568;2023-09-30T03:37:45;22.15;;;5.05;;
41311;SDS011;27061;41.648;24.568;2023-09-30T03:40:15;13.90;;;4.60;;
41311;SDS011;27061;41.648;24.568;2023-09-30T03:42:47;14.07;;;4.53;;
41311;SDS011;27061;41.648;24.568;2023-09-30T03:45:17;16.55;;;4.53;;
41311;SDS011;27061;41.648;24.568;2023-09-30T03:47:48;12.48;;;4.70;;
41311;SDS011;27061;41.648;24.568;2023-09-30T03:50:16;22.27;;;4.90;;
41311;SDS011;27061;41.648;24.568;2023-09-30T03:52:43;34.05;;;5.95;;
41311;SDS011;27061;41.648;24.568;2023-09-30T03:55:14;30.80;;;4.90;;
41311;SDS011;27061;41.648;24.568;2023-09-30T03:57:43;23.25;;;5.95;;
41311;SDS011;27061;41.648;24.568;2023-09-30T04:00:15;24.95;;;5.40;;
41311;SDS011;27061;41.648;24.568;2023-09-30T04:02:53;18.20;;;5.10;;
41311;SDS011;27061;41.648;24.568;2023-09-30T04:05:25;29.77;;;6.40;;
41311;SDS011;27061;41.648;24.568;2023-09-30T04:07:56;11.60;;;4.97;;
41311;SDS011;27061;41.648;24.568;2023-09-30T04:10:24;89.57;;;8.95;;
41311;SDS011;27061;41.648;24.568;2023-09-30T04:12:52;18.30;;;5.10;;
41311;SDS011;27061;41.648;24.568;2023-09-30T04:15:19;15.55;;;4.28;;
41311;SDS011;27061;41.648;24.568;2023-09-30T04:17:48;43.08;;;6.40;;
41311;SDS011;27061;41.648;24.568;2023-09-30T04:20:15;28.77;;;5.25;;
41311;SDS011;27061;41.648;24.568;2023-09-30T04:22:46;41.40;;;5.97;;
41311;SDS011;27061;41.648;24.568;2023-09-30T04:25:16;36.25;;;5.43;;
41311;SDS011;27061;41.648;24.568;2023-09-30T04:27:44;13.63;;;4.43;;
41311;SDS011;27061;41.648;24.568;2023-09-30T04:30:18;29.30;;;5.20;;
41311;SDS011;27061;41.648;24.568;2023-09-30T04:32:46;17.10;;;5.00;;
41311;SDS011;27061;41.648;24.568;2023-09-30T04:35:13;13.82;;;4.80;;
41311;SDS011;27061;41.648;24.568;2023-09-30T04:37:41;59.10;;;7.07;;
41311;SDS011;27061;41.648;24.568;2023-09-30T04:40:10;107.05;;;8.73;;
41311;SDS011;27061;41.648;24.568;2023-09-30T04:42:47;33.35;;;6.45;;
41311;SDS011;27061;41.648;24.568;2023-09-30T04:45:15;140.77;;;11.60;;
41311;SDS011;27061;41.648;24.568;2023-09-30T04:47:51;18.98;;;4.63;;
41311;SDS011;27061;41.648;24.568;2023-09-30T04:50:19;24.35;;;4.68;;
41311;SDS011;27061;41.648;24.568;2023-09-30T04:52:52;25.48;;;4.55;;
41311;SDS011;27061;41.648;24.568;2023-09-30T04:55:22;61.35;;;7.00;;
41311;SDS011;27061;41.648;24.568;2023-09-30T04:57:50;42.78;;;6.53;;
41311;SDS011;27061;41.648;24.568;2023-09-30T05:00:19;61.00;;;7.90;;
41311;SDS011;27061;41.648;24.568;2023-09-30T05:05:22;47.83;;;6.68;;
41311;SDS011;27061;41.648;24.568;2023-09-30T05:07:49;77.43;;;8.40;;
41311;SDS011;27061;41.648;24.568;2023-09-30T05:10:16;12.93;;;4.88;;
41311;SDS011;27061;41.648;24.568;2023-09-30T05:12:44;16.83;;;4.38;;
41311;SDS011;27061;41.648;24.568;2023-09-30T05:15:15;29.10;;;4.75;;
41311;SDS011;27061;41.648;24.568;2023-09-30T05:17:44;42.67;;;6.55;;
41311;SDS011;27061;41.648;24.568;2023-09-30T05:20:13;67.88;;;6.90;;
41311;SDS011;27061;41.648;24.568;2023-09-30T05:22:44;43.70;;;6.13;;
41311;SDS011;27061;41.648;24.568;2023-09-30T05:25:13;15.93;;;4.00;;
41311;SDS011;27061;41.648;24.568;2023-09-30T05:27:44;12.20;;;4.43;;
41311;SDS011;27061;41.648;24.568;2023-09-30T05:30:11;15.93;;;4.07;;
41311;SDS011;27061;41.648;24.568;2023-09-30T05:32:42;27.67;;;5.47;;
41311;SDS011;27061;41.648;24.568;2023-09-30T05:35:09;67.40;;;8.23;;
41311;SDS011;27061;41.648;24.568;2023-09-30T05:37:40;80.10;;;7.65;;
41311;SDS011;27061;41.648;24.568;2023-09-30T05:40:08;51.83;;;6.30;;
41311;SDS011;27061;41.648;24.568;2023-09-30T05:42:53;64.63;;;6.97;;
41311;SDS011;27061;41.648;24.568;2023-09-30T05:45:27;20.40;;;4.43;;
41311;SDS011;27061;41.648;24.568;2023-09-30T05:47:57;146.25;;;13.15;;
41311;SDS011;27061;41.648;24.568;2023-09-30T05:50:29;12.38;;;4.55;;
41311;SDS011;27061;41.648;24.568;2023-09-30T05:52:56;14.77;;;4.90;;
41311;SDS011;27061;41.648;24.568;2023-09-30T05:55:24;27.05;;;5.55;;
41311;SDS011;27061;41.648;24.568;2023-09-30T05:57:53;111.78;;;12.02;;
41311;SDS011;27061;41.648;24.568;2023-09-30T06:00:22;41.38;;;7.63;;
41311;SDS011;27061;41.648;24.568;2023-09-30T06:03:01;86.60;;;10.13;;
41311;SDS011;27061;41.648;24.568;2023-09-30T06:05:31;52.55;;;9.73;;
41311;SDS011;27061;41.648;24.568;2023-09-30T06:08:00;17.13;;;5.70;;
41311;SDS011;27061;41.648;24.568;2023-09-30T06:10:30;32.78;;;9.10;;
41311;SDS011;27061;41.648;24.568;2023-09-30T06:12:58;39.83;;;8.60;;
41311;SDS011;27061;41.648;24.568;2023-09-30T06:15:26;15.60;;;6.18;;
41311;SDS011;27061;41.648;24.568;2023-09-30T06:17:57;30.83;;;6.65;;
41311;SDS011;27061;41.648;24.568;2023-09-30T06:20:27;18.60;;;6.28;;
41311;SDS011;27061;41.648;24.568;2023-09-30T06:22:57;23.50;;;6.10;;
41311;SDS011;27061;41.648;24.568;2023-09-30T06:25:24;74.82;;;8.52;;
41311;SDS011;27061;41.648;24.568;2023-09-30T06:27:52;33.65;;;9.25;;
41311;SDS011;27061;41.648;24.568;2023-09-30T06:30:27;22.10;;;7.75;;
41311;SDS011;27061;41.648;24.568;2023-09-30T06:32:58;49.33;;;8.35;;
41311;SDS011;27061;41.648;24.568;2023-09-30T06:35:28;52.33;;;8.55;;
41311;SDS011;27061;41.648;24.568;2023-09-30T06:37:57;38.28;;;7.88;;
41311;SDS011;27061;41.648;24.568;2023-09-30T06:40:24;22.05;;;6.28;;
41311;SDS011;27061;41.648;24.568;2023-09-30T06:42:52;85.65;;;10.82;;
41311;SDS011;27061;41.648;24.568;2023-09-30T06:45:24;63.50;;;8.48;;
41311;SDS011;27061;41.648;24.568;2023-09-30T06:47:53;51.30;;;7.20;;
41311;SDS011;27061;41.648;24.568;2023-09-30T06:50:21;43.05;;;7.97;;
41311;SDS011;27061;41.648;24.568;2023-09-30T06:52:48;42.72;;;7.43;;
41311;SDS011;27061;41.648;24.568;2023-09-30T06:55:17;60.72;;;8.25;;
41311;SDS011;27061;41.648;24.568;2023-09-30T06:57:44;76.50;;;8.93;;
41311;SDS011;27061;41.648;24.568;2023-09-30T07:00:12;67.40;;;9.20;;
41311;SDS011;27061;41.648;24.568;2023-09-30T07:02:41;76.82;;;10.35;;
41311;SDS011;27061;41.648;24.568;2023-09-30T07:05:09;73.63;;;9.52;;
41311;SDS011;27061;41.648;24.568;2023-09-30T07:07:38;64.43;;;9.15;;
41311;SDS011;27061;41.648;24.568;2023-09-30T07:10:06;152.65;;;14.55;;
41311;SDS011;27061;41.648;24.568;2023-09-30T07:12:34;62.67;;;8.50;;
41311;SDS011;27061;41.648;24.568;2023-09-30T07:15:03;101.95;;;11.43;;
41311;SDS011;27061;41.648;24.568;2023-09-30T07:17:32;16.83;;;5.85;;
41311;SDS011;27061;41.648;24.568;2023-09-30T07:20:01;60.88;;;9.13;;
41311;SDS011;27061;41.648;24.568;2023-09-30T07:22:29;56.53;;;6.38;;
41311;SDS011;27061;41.648;24.568;2023-09-30T07:25:00;43.40;;;7.30;;
41311;SDS011;27061;41.648;24.568;2023-09-30T07:27:27;132.63;;;11.75;;
41311;SDS011;27061;41.648;24.568;2023-09-30T07:29:55;106.55;;;12.98;;
41311;SDS011;27061;41.648;24.568;2023-09-30T07:32:23;78.60;;;9.45;;
41311;SDS011;27061;41.648;24.568;2023-09-30T07:34:50;40.65;;;5.82;;
41311;SDS011;27061;41.648;24.568;2023-09-30T07:37:19;41.83;;;7.13;;
41311;SDS011;27061;41.648;24.568;2023-09-30T07:39:47;58.42;;;8.18;;
41311;SDS011;27061;41.648;24.568;2023-09-30T07:42:17;34.95;;;5.88;;
41311;SDS011;27061;41.648;24.568;2023-09-30T07:44:44;42.38;;;6.75;;
41311;SDS011;27061;41.648;24.568;2023-09-30T07:47:12;51.95;;;6.68;;
41311;SDS011;27061;41.648;24.568;2023-09-30T07:49:39;17.90;;;4.85;;
41311;SDS011;27061;41.648;24.568;2023-09-30T07:52:06;32.67;;;6.28;;
41311;SDS011;27061;41.648;24.568;2023-09-30T07:54:34;55.55;;;7.03;;
41311;SDS011;27061;41.648;24.568;2023-09-30T07:57:01;48.97;;;6.22;;
41311;SDS011;27061;41.648;24.568;2023-09-30T07:59:28;20.45;;;6.80;;
41311;SDS011;27061;41.648;24.568;2023-09-30T08:01:55;46.75;;;6.05;;
41311;SDS011;27061;41.648;24.568;2023-09-30T08:04:24;42.50;;;6.68;;
41311;SDS011;27061;41.648;24.568;2023-09-30T08:06:51;45.10;;;6.93;;
41311;SDS011;27061;41.648;24.568;2023-09-30T08:09:20;52.65;;;6.43;;
41311;SDS011;27061;41.648;24.568;2023-09-30T08:11:58;22.08;;;4.07;;
41311;SDS011;27061;41.648;24.568;2023-09-30T08:14:25;18.15;;;4.60;;
41311;SDS011;27061;41.648;24.568;2023-09-30T08:16:52;28.65;;;5.07;;
41311;SDS011;27061;41.648;24.568;2023-09-30T08:19:20;12.75;;;4.25;;
41311;SDS011;27061;41.648;24.568;2023-09-30T08:21:47;9.00;;;3.53;;
41311;SDS011;27061;41.648;24.568;2023-09-30T08:24:15;20.55;;;4.05;;
41311;SDS011;27061;41.648;24.568;2023-09-30T08:26:44;13.48;;;3.83;;
41311;SDS011;27061;41.648;24.568;2023-09-30T08:29:12;12.63;;;4.10;;
41311;SDS011;27061;41.648;24.568;2023-09-30T08:31:39;20.92;;;3.88;;
41311;SDS011;27061;41.648;24.568;2023-09-30T08:34:06;26.70;;;4.43;;
41311;SDS011;27061;41.648;24.568;2023-09-30T08:36:33;10.38;;;4.47;;
41311;SDS011;27061;41.648;24.568;2023-09-30T08:39:01;15.52;;;3.83;;
41311;SDS011;27061;41.648;24.568;2023-09-30T08:41:30;30.48;;;5.53;;
41311;SDS011;27061;41.648;24.568;2023-09-30T08:44:03;27.33;;;4.35;;
41311;SDS011;27061;41.648;24.568;2023-09-30T08:46:31;11.35;;;4.18;;
41311;SDS011;27061;41.648;24.568;2023-09-30T08:49:02;25.50;;;4.25;;
41311;SDS011;27061;41.648;24.568;2023-09-30T08:51:31;22.38;;;4.90;;
41311;SDS011;27061;41.648;24.568;2023-09-30T08:53:59;20.67;;;4.18;;
41311;SDS011;27061;41.648;24.568;2023-09-30T08:56:31;26.88;;;4.40;;
41311;SDS011;27061;41.648;24.568;2023-09-30T08:59:02;23.17;;;3.95;;
41311;SDS011;27061;41.648;24.568;2023-09-30T09:01:30;9.90;;;3.33;;
41311;SDS011;27061;41.648;24.568;2023-09-30T09:03:58;23.90;;;4.55;;
41311;SDS011;27061;41.648;24.568;2023-09-30T09:06:26;8.13;;;3.63;;
41311;SDS011;27061;41.648;24.568;2023-09-30T09:08:54;14.30;;;3.97;;
41311;SDS011;27061;41.648;24.568;2023-09-30T09:11:40;32.95;;;4.90;;
41311;SDS011;27061;41.648;24.568;2023-09-30T09:14:07;12.23;;;3.35;;
41311;SDS011;27061;41.648;24.568;2023-09-30T09:16:36;12.90;;;3.70;;
41311;SDS011;27061;41.648;24.568;2023-09-30T09:19:13;8.38;;;4.03;;
41311;SDS011;27061;41.648;24.568;2023-09-30T09:22:00;12.63;;;4.22;;
41311;SDS011;27061;41.648;24.568;2023-09-30T09:24:32;22.55;;;4.45;;
41311;SDS011;27061;41.648;24.568;2023-09-30T09:27:04;10.23;;;3.80;;
41311;SDS011;27061;41.648;24.568;2023-09-30T09:29:39;10.45;;;3.42;;
41311;SDS011;27061;41.648;24.568;2023-09-30T09:32:07;8.68;;;3.83;;
41311;SDS011;27061;41.648;24.568;2023-09-30T09:34:45;7.82;;;3.50;;
41311;SDS011;27061;41.648;24.568;2023-09-30T09:37:30;10.07;;;3.45;;
41311;SDS011;27061;41.648;24.568;2023-09-30T09:39:58;7.18;;;3.83;;
41311;SDS011;27061;41.648;24.568;2023-09-30T09:42:27;7.72;;;3.65;;
41311;SDS011;27061;41.648;24.568;2023-09-30T09:45:03;8.65;;;4.32;;
41311;SDS011;27061;41.648;24.568;2023-09-30T09:47:35;8.23;;;3.80;;
41311;SDS011;27061;41.648;24.568;2023-09-30T09:50:03;13.75;;;4.75;;
41311;SDS011;27061;41.648;24.568;2023-09-30T09:52:33;7.57;;;4.28;;
41311;SDS011;27061;41.648;24.568;2023-09-30T09:55:01;6.68;;;3.10;;
41311;SDS011;27061;41.648;24.568;2023-09-30T09:57:30;8.98;;;3.83;;
41311;SDS011;27061;41.648;24.568;2023-09-30T09:59:58;22.30;;;4.00;;
41311;SDS011;27061;41.648;24.568;2023-09-30T10:02:30;14.82;;;4.15;;
41311;SDS011;27061;41.648;24.568;2023-09-30T10:04:59;18.50;;;3.80;;
41311;SDS011;27061;41.648;24.568;2023-09-30T10:07:30;8.80;;;3.72;;
41311;SDS011;27061;41.648;24.568;2023-09-30T10:10:02;10.27;;;3.75;;
41311;SDS011;27061;41.648;24.568;2023-09-30T10:12:36;6.57;;;3.40;;
41311;SDS011;27061;41.648;24.568;2023-09-30T10:18:09;17.23;;;2.97;;
41311;SDS011;27061;41.648;24.568;2023-09-30T10:20:41;49.40;;;4.88;;
41311;SDS011;27061;41.648;24.568;2023-09-30T10:25:48;56.05;;;6.13;;
41311;SDS011;27061;41.648;24.568;2023-09-30T10:28:36;12.85;;;3.40;;
41311;SDS011;27061;41.648;24.568;2023-09-30T10:36:27;8.75;;;2.92;;
41311;SDS011;27061;41.648;24.568;2023-09-30T10:38:55;29.42;;;4.55;;
41311;SDS011;27061;41.648;24.568;2023-09-30T10:46:58;10.18;;;3.05;;
41311;SDS011;27061;41.648;24.568;2023-09-30T10:49:30;11.90;;;3.95;;
41311;SDS011;27061;41.648;24.568;2023-09-30T10:52:02;36.72;;;3.85;;
41311;SDS011;27061;41.648;24.568;2023-09-30T10:54:30;7.85;;;3.17;;
41311;SDS011;27061;41.648;24.568;2023-09-30T10:56:59;16.30;;;3.38;;
41311;SDS011;27061;41.648;24.568;2023-09-30T10:59:27;127.00;;;8.25;;
41311;SDS011;27061;41.648;24.568;2023-09-30T11:01:58;8.93;;;3.42;;
41311;SDS011;27061;41.648;24.568;2023-09-30T11:04:26;53.70;;;5.70;;
41311;SDS011;27061;41.648;24.568;2023-09-30T11:06:56;10.38;;;3.95;;
41311;SDS011;27061;41.648;24.568;2023-09-30T11:09:27;17.10;;;3.80;;
41311;SDS011;27061;41.648;24.568;2023-09-30T11:11:55;16.15;;;4.00;;
41311;SDS011;27061;41.648;24.568;2023-09-30T11:14:23;34.72;;;3.38;;
41311;SDS011;27061;41.648;24.568;2023-09-30T11:17:02;8.30;;;2.92;;
41311;SDS011;27061;41.648;24.568;2023-09-30T11:19:34;8.88;;;3.60;;
41311;SDS011;27061;41.648;24.568;2023-09-30T11:22:04;6.13;;;3.33;;
41311;SDS011;27061;41.648;24.568;2023-09-30T11:24:35;7.35;;;3.15;;
41311;SDS011;27061;41.648;24.568;2023-09-30T11:27:03;5.25;;;2.75;;
41311;SDS011;27061;41.648;24.568;2023-09-30T11:29:31;10.88;;;3.80;;
41311;SDS011;27061;41.648;24.568;2023-09-30T11:31:59;11.40;;;3.05;;
41311;SDS011;27061;41.648;24.568;2023-09-30T11:34:32;9.02;;;3.25;;
41311;SDS011;27061;41.648;24.568;2023-09-30T11:37:01;18.63;;;3.70;;
41311;SDS011;27061;41.648;24.568;2023-09-30T11:39:29;16.45;;;4.05;;
41311;SDS011;27061;41.648;24.568;2023-09-30T11:41:57;6.82;;;3.53;;
41311;SDS011;27061;41.648;24.568;2023-09-30T11:44:27;10.35;;;3.38;;
41311;SDS011;27061;41.648;24.568;2023-09-30T11:47:01;6.43;;;2.53;;
41311;SDS011;27061;41.648;24.568;2023-09-30T11:49:36;12.05;;;2.70;;
41311;SDS011;27061;41.648;24.568;2023-09-30T11:52:09;20.40;;;3.92;;
41311;SDS011;27061;41.648;24.568;2023-09-30T11:54:41;9.18;;;3.03;;
41311;SDS011;27061;41.648;24.568;2023-09-30T11:57:11;10.25;;;2.80;;
41311;SDS011;27061;41.648;24.568;2023-09-30T11:59:43;11.48;;;3.28;;
41311;SDS011;27061;41.648;24.568;2023-09-30T12:02:12;9.98;;;3.42;;
41311;SDS011;27061;41.648;24.568;2023-09-30T12:04:45;7.10;;;3.35;;
41311;SDS011;27061;41.648;24.568;2023-09-30T12:07:16;13.95;;;3.20;;
41311;SDS011;27061;41.648;24.568;2023-09-30T12:09:43;8.18;;;2.75;;
41311;SDS011;27061;41.648;24.568;2023-09-30T12:12:10;5.03;;;2.85;;
41311;SDS011;27061;41.648;24.568;2023-09-30T12:14:39;7.45;;;3.13;;
41311;SDS011;27061;41.648;24.568;2023-09-30T12:17:07;15.07;;;3.65;;
41311;SDS011;27061;41.648;24.568;2023-09-30T12:19:39;22.10;;;3.55;;
41311;SDS011;27061;41.648;24.568;2023-09-30T12:22:08;10.32;;;3.08;;
41311;SDS011;27061;41.648;24.568;2023-09-30T12:24:37;8.63;;;3.42;;
41311;SDS011;27061;41.648;24.568;2023-09-30T12:27:07;9.02;;;3.30;;
41311;SDS011;27061;41.648;24.568;2023-09-30T12:29:34;23.67;;;4.00;;
41311;SDS011;27061;41.648;24.568;2023-09-30T12:32:01;12.32;;;3.00;;
41311;SDS011;27061;41.648;24.568;2023-09-30T12:34:32;5.40;;;2.88;;
41311;SDS011;27061;41.648;24.568;2023-09-30T12:37:00;9.27;;;3.45;;
41311;SDS011;27061;41.648;24.568;2023-09-30T12:39:27;17.33;;;3.88;;
41311;SDS011;27061;41.648;24.568;2023-09-30T12:41:58;14.68;;;3.33;;
41311;SDS011;27061;41.648;24.568;2023-09-30T12:44:26;8.77;;;2.65;;
41311;SDS011;27061;41.648;24.568;2023-09-30T12:46:53;10.43;;;3.75;;
41311;SDS011;27061;41.648;24.568;2023-09-30T12:49:21;6.47;;;2.80;;
41311;SDS011;27061;41.648;24.568;2023-09-30T12:51:48;4.18;;;3.25;;
41311;SDS011;27061;41.648;24.568;2023-09-30T12:54:16;15.90;;;3.60;;
41311;SDS011;27061;41.648;24.568;2023-09-30T12:56:45;10.55;;;3.38;;
41311;SDS011;27061;41.648;24.568;2023-09-30T12:59:14;9.93;;;2.92;;
41311;SDS011;27061;41.648;24.568;2023-09-30T13:01:42;5.97;;;2.95;;
41311;SDS011;27061;41.648;24.568;2023-09-30T13:04:11;6.10;;;3.42;;
41311;SDS011;27061;41.648;24.568;2023-09-30T13:06:38;14.43;;;3.63;;
41311;SDS011;27061;41.648;24.568;2023-09-30T13:09:07;13.15;;;3.20;;
41311;SDS011;27061;41.648;24.568;2023-09-30T13:11:36;10.38;;;3.65;;
41311;SDS011;27061;41.648;24.568;2023-09-30T13:14:04;15.18;;;3.20;;
41311;SDS011;27061;41.648;24.568;2023-09-30T13:16:31;10.75;;;3.35;;
41311;SDS011;27061;41.648;24.568;2023-09-30T13:18:58;7.07;;;3.30;;
41311;SDS011;27061;41.648;24.568;2023-09-30T13:21:26;11.15;;;3.53;;
41311;SDS011;27061;41.648;24.568;2023-09-30T13:23:54;16.88;;;5.15;;
41311;SDS011;27061;41.648;24.568;2023-09-30T13:26:21;11.85;;;4.50;;
41311;SDS011;27061;41.648;24.568;2023-09-30T13:28:49;8.15;;;3.28;;
41311;SDS011;27061;41.648;24.568;2023-09-30T13:31:16;12.20;;;2.92;;
41311;SDS011;27061;41.648;24.568;2023-09-30T13:33:43;26.30;;;4.05;;
41311;SDS011;27061;41.648;24.568;2023-09-30T13:36:11;34.40;;;3.47;;
41311;SDS011;27061;41.648;24.568;2023-09-30T13:38:38;6.55;;;3.38;;
41311;SDS011;27061;41.648;24.568;2023-09-30T13:41:05;16.77;;;3.03;;
41311;SDS011;27061;41.648;24.568;2023-09-30T13:43:32;23.75;;;5.05;;
41311;SDS011;27061;41.648;24.568;2023-09-30T13:46:03;24.23;;;3.55;;
41311;SDS011;27061;41.648;24.568;2023-09-30T13:48:32;46.75;;;6.82;;
41311;SDS011;27061;41.648;24.568;2023-09-30T13:51:06;14.18;;;3.28;;
41311;SDS011;27061;41.648;24.568;2023-09-30T13:53:34;14.97;;;3.70;;
41311;SDS011;27061;41.648;24.568;2023-09-30T13:56:02;12.20;;;3.88;;
41311;SDS011;27061;41.648;24.568;2023-09-30T13:58:32;7.60;;;3.60;;
41311;SDS011;27061;41.648;24.568;2023-09-30T14:01:00;9.30;;;3.88;;
41311;SDS011;27061;41.648;24.568;2023-09-30T14:03:28;23.30;;;4.05;;
41311;SDS011;27061;41.648;24.568;2023-09-30T14:05:56;15.13;;;3.80;;
41311;SDS011;27061;41.648;24.568;2023-09-30T14:08:24;6.78;;;3.05;;
41311;SDS011;27061;41.648;24.568;2023-09-30T14:10:52;21.70;;;5.82;;
41311;SDS011;27061;41.648;24.568;2023-09-30T14:13:19;16.90;;;4.03;;
41311;SDS011;27061;41.648;24.568;2023-09-30T14:15:46;34.88;;;4.55;;
41311;SDS011;27061;41.648;24.568;2023-09-30T14:18:14;23.90;;;4.82;;
41311;SDS011;27061;41.648;24.568;2023-09-30T14:20:42;23.08;;;4.60;;
41311;SDS011;27061;41.648;24.568;2023-09-30T14:23:09;13.27;;;3.90;;
41311;SDS011;27061;41.648;24.568;2023-09-30T14:25:37;10.60;;;3.50;;
41311;SDS011;27061;41.648;24.568;2023-09-30T14:28:04;13.50;;;4.30;;
41311;SDS011;27061;41.648;24.568;2023-09-30T14:30:32;20.15;;;4.30;;
41311;SDS011;27061;41.648;24.568;2023-09-30T14:33:00;12.10;;;3.58;;
41311;SDS011;27061;41.648;24.568;2023-09-30T14:35:28;10.77;;;4.18;;
41311;SDS011;27061;41.648;24.568;2023-09-30T14:37:55;10.88;;;3.63;;
41311;SDS011;27061;41.648;24.568;2023-09-30T14:40:23;9.57;;;3.70;;
41311;SDS011;27061;41.648;24.568;2023-09-30T14:42:51;15.70;;;3.53;;
41311;SDS011;27061;41.648;24.568;2023-09-30T14:45:18;10.98;;;3.53;;
41311;SDS011;27061;41.648;24.568;2023-09-30T14:47:47;19.60;;;4.32;;
41311;SDS011;27061;41.648;24.568;2023-09-30T14:50:15;91.22;;;7.57;;
41311;SDS011;27061;41.648;24.568;2023-09-30T14:52:42;27.23;;;4.35;;